Middletown, Rhode Island
Current Conditions -  °F | °C
As of 9:04 PM on Friday 19 Dec 2014 (Local Time) from KUUU Reporting Station
Overcast Overcast  
Wind Chill: 29°   Ceiling: 2900
Heat Index: 33°   Visibility: 10mi
Dew Point: 22°   Wind: 5mph
Humidity: 64%   Direction: 330°NNW
Pressure: 30.1"   Gusts: NA
Location:  41.55°N, 71.29°W
Report Text: KUUU 200204Z AUTO 33004KT 10SM OVC029 01/M06 A3010 RMK AO2 T00061056
Loading
Personal Weather Stations






























Interactive Weather Map New forecast layout! Learn more

10-Day Weather Forecast

Advertisements
Track Severe Weather on mobile